Atlanta, LA

2:01 PM CDT on September 02, 2014 (GMT -0500)
Natchitoches Regional | Change Station
CLOSE
Current Station
Airport
Location: Natchitoches,
Elevation: 118 ft
Nearby Weather Stations

Elev 118 ft 31.74 °N, 93.10 °W | Updated 6 minutes ago

Light Thunderstorms and Rain
Light Thunderstorm Rain
82 °F
Feels Like 90 °F
N
8
Wind Variable Wind from SSW

Today
High -- | Low -- °F
--% Chance of Precip.
Yesterday
High -- | Low -- °F
Precip. -- in
6:47 AM 7:33 PM
First Quarter, 54% visible
Pressure 30.01 in
Visibility 10.0 miles
Clouds Scattered Clouds 1700 ft
Mostly Cloudy 4800 ft
Overcast 9000 ft
Heat Index 90 °F
Dew Point 76 °F
Humidity 80%
Rainfall 0.00 in
Snow Depth Not available.
UV 3 out of 12
Pollen 9.40 out of 12
Air Quality Not available.
Flu Activity Not available.
METAR KIER 021855Z AUTO 21007KT 10SM -TSRA SCT017 BKN048 OVC090 28/24 A3001 RMK AO2 LTG DSNT ALQS T02800242

More Conditions Fewer Conditions

Pressure 30.01 in
Visibility 10.0 miles
Clouds Scattered Clouds 1700 ft
Mostly Cloudy 4800 ft
Overcast 9000 ft
Heat Index 90 °F
Dew Point 76 °F
Humidity 80%
Rainfall 0.00 in
Snow Depth Not available.
UV 3 out of 12
Pollen 9.40 out of 12
Air Quality Not available.
Flu Activity Not available.
METAR KIER 021855Z AUTO 21007KT 10SM -TSRA SCT017 BKN048 OVC090 28/24 A3001 RMK AO2 LTG DSNT ALQS T02800242

More Conditions Fewer Conditions

Nowcast | as of 12:10 PM CDT on September 2, 2014

Showers and thunderstorms will continue moving southward across southeast Oklahoma and southwest Arkansas along an outflow boundary through early afternoon. Rainfall amounts will average generally less than a tenth of inch through 2 PM.

×

10-Day Weather Forecast

Almanac

Astronomy

Sep. 02, 2014 Rise Set
Actual Time 6:47 AM CDT 7:33 PM CDT
Civil Twilight 6:22 AM CDT 7:58 PM CDT
Nautical Twilight 5:53 AM CDT 8:27 PM CDT
Astronomical Twilight 5:23 AM CDT 8:57 PM CDT
Moon 2:06 PM CDT 12:01 AM CDT
Length of Visible Light 13h 36m
Length of Day
12h 46m
Tomorrow will be 1m 52s shorter.
First Quarter, 54% of the Moon is Illuminated
Today
First Quarter
Sep 8
Full
Sep 15
Last Quarter
Sep 24
New
Oct 1
First Quarter

Today's Extremes

State Highs State Lows

Community

WunderPhotos

Upload Photos

1,749,745 photos uploaded!

WunderBlogs® & News

By Dr. Jeff Masters
Director of Meteorology, Weather Underground
By Kari Strenfel
Meteorologist, Weather Underground
By Christopher C. Burt
Weather Historian, Weather Underground
September 2, 2014
September 2, 2014
September 2, 2014

Nearby

Snow Depth

Station Depth Elevation
No new snow has been reported.

Earthquake Activity

City Distance Mag. Time & Date
No recent earthquake activity has been reported nearby.
Minimum magnitude displayed is 2.5.

Coastal Water Temperatures

Place Temperature
No Stations Reporting

Nearby Weather Stations